Saratoga-Weather Station Historical Data
Daily Summary for February 11, 2019 Units:  English    Metric   Both
Daily Weekly Monthly Yearly Custom
  High: Low: Average:
Temperature: 55.9 °F 41.7 °F 48.9 °F
Dew Point: 55.9 °F 41.0 °F 48.5 °F
Humidity: 100% 97% 99%
Wind Speed: 0.9mph 0.0mph 0mph
Wind Gust: 7.0mph - -
Wind- - SSE
Pressure: 30.35 in 30.04 in -
Precipitation: 0.49 in    
Historical Graphs
 
 
Tabular Data for February 11, 2019
Time Temperature Dew Point Pressure Wind Wind Speed Wind Gust Humidity Rainfall Rate (Hourly) solar
00:04 41.7 °F 41.0 °F 30.35 in Calm     97% 0.07 in meteobridge W/m2
00:09 41.7 °F 41.2 °F 30.35 in Calm     98% 0.08 in meteobridge W/m2
00:14 41.9 °F 41.4 °F 30.34 in Calm     98% 0.07 in meteobridge W/m2
00:19 41.9 °F 41.4 °F 30.34 in Calm     98% 0.08 in meteobridge W/m2
00:24 42.1 °F 41.5 °F 30.33 in Calm     98% 0.08 in meteobridge W/m2
00:29 42.1 °F 41.5 °F 30.34 in Calm     98% 0.08 in meteobridge W/m2
00:34 42.1 °F 41.4 °F 30.33 in Calm   1.0 mph 97% 0.07 in meteobridge W/m2
00:39 42.1 °F 41.5 °F 30.33 in Calm     98% 0.08 in meteobridge W/m2
00:44 42.1 °F 41.5 °F 30.33 in Calm     98% 0.07 in meteobridge W/m2
00:49 42.1 °F 41.5 °F 30.33 in Calm   2.0 mph 98% 0.06 in meteobridge W/m2
00:54 42.3 °F 41.7 °F 30.33 in Calm     98% 0.05 in meteobridge W/m2
00:59 42.3 °F 41.7 °F 30.33 in Calm     98% 0.04 in meteobridge W/m2
01:04 42.3 °F 41.7 °F 30.33 in Calm     98% 0.03 in meteobridge W/m2
01:09 42.4 °F 41.9 °F 30.33 in Calm     98% 0.02 in meteobridge W/m2
01:14 42.3 °F 41.7 °F 30.33 in Calm   2.0 mph 98% 0.02 in meteobridge W/m2
01:19 42.4 °F 41.9 °F 30.32 in Calm     98% 0.01 in meteobridge W/m2
01:24 42.4 °F 41.9 °F 30.32 in Calm     98% 0.01 in meteobridge W/m2
01:29 42.4 °F 41.9 °F 30.32 in Calm     98% 0.01 in meteobridge W/m2
01:34 42.4 °F 41.9 °F 30.32 in Calm   1.0 mph 98% 0.01 in meteobridge W/m2
01:39 42.4 °F 41.9 °F 30.32 in Calm     98% 0.00 in meteobridge W/m2
01:44 42.6 °F 42.1 °F 30.33 in Calm     98% 0.00 in meteobridge W/m2
01:49 42.6 °F 42.1 °F 30.32 in Calm     98% 0.00 in meteobridge W/m2
01:54 42.6 °F 42.1 °F 30.32 in Calm     98% 0.00 in meteobridge W/m2
01:59 42.6 °F 42.1 °F 30.32 in Calm     98% 0.00 in meteobridge W/m2
02:04 42.6 °F 42.1 °F 30.32 in Calm     98% 0.00 in meteobridge W/m2
02:09 42.6 °F 42.1 °F 30.32 in Calm   2.0 mph 98% 0.00 in meteobridge W/m2
02:14 42.8 °F 42.3 °F 30.32 in Calm     98% 0.00 in meteobridge W/m2
02:19 42.6 °F 42.1 °F 30.32 in Calm     98% 0.00 in meteobridge W/m2
02:24 42.8 °F 42.3 °F 30.32 in Calm   1.0 mph 98% 0.00 in meteobridge W/m2
02:29 42.8 °F 42.3 °F 30.32 in Calm     98% 0.00 in meteobridge W/m2
02:34 42.8 °F 42.3 °F 30.32 in Calm     98% 0.00 in meteobridge W/m2
02:39 43.0 °F 42.4 °F 30.31 in Calm     98% 0.00 in meteobridge W/m2
02:44 42.8 °F 42.3 °F 30.31 in Calm     98% 0.00 in meteobridge W/m2
02:49 43.0 °F 42.4 °F 30.31 in Calm     98% 0.01 in meteobridge W/m2
02:54 43.0 °F 42.4 °F 30.30 in Calm     98% 0.01 in meteobridge W/m2
02:59 43.0 °F 42.4 °F 30.30 in Calm     98% 0.01 in meteobridge W/m2
03:04 43.0 °F 42.4 °F 30.30 in Calm     98% 0.01 in meteobridge W/m2
03:09 43.0 °F 42.4 °F 30.30 in Calm     98% 0.01 in meteobridge W/m2
03:14 43.0 °F 42.4 °F 30.30 in Calm     98% 0.01 in meteobridge W/m2
03:19 43.0 °F 42.4 °F 30.29 in Calm     98% 0.01 in meteobridge W/m2
03:24 43.0 °F 42.4 °F 30.29 in Calm     98% 0.01 in meteobridge W/m2
03:29 43.0 °F 42.4 °F 30.29 in Calm     98% 0.01 in meteobridge W/m2
03:34 43.2 °F 42.6 °F 30.29 in Calm     98% 0.01 in meteobridge W/m2
03:39 43.0 °F 42.4 °F 30.29 in Calm     98% 0.01 in meteobridge W/m2
03:44 43.2 °F 42.6 °F 30.29 in Calm     98% 0.00 in meteobridge W/m2
03:49 43.2 °F 42.6 °F 30.29 in SSE 0.9 mph 1.0 mph 98% 0.00 in meteobridge W/m2
03:54 43.3 °F 42.8 °F 30.29 in Calm   1.0 mph 98% 0.00 in meteobridge W/m2
03:59 43.3 °F 42.8 °F 30.29 in Calm     98% 0.01 in meteobridge W/m2
04:04 43.3 °F 42.8 °F 30.29 in SSE 0.9 mph 1.0 mph 98% 0.01 in meteobridge W/m2
04:09 43.3 °F 42.8 °F 30.29 in Calm     98% 0.01 in meteobridge W/m2
04:14 43.3 °F 42.8 °F 30.29 in Calm     98% 0.01 in meteobridge W/m2
04:19 43.3 °F 42.8 °F 30.29 in Calm   2.0 mph 98% 0.02 in meteobridge W/m2
04:24 43.3 °F 42.8 °F 30.29 in Calm     98% 0.02 in meteobridge W/m2
04:29 43.5 °F 43.0 °F 30.29 in Calm     98% 0.02 in meteobridge W/m2
04:34 43.5 °F 43.0 °F 30.29 in Calm     98% 0.02 in meteobridge W/m2
04:39 43.5 °F 43.0 °F 30.28 in Calm     98% 0.03 in meteobridge W/m2
04:44 43.5 °F 43.0 °F 30.28 in Calm   1.0 mph 98% 0.03 in meteobridge W/m2
04:49 43.5 °F 43.0 °F 30.28 in Calm     98% 0.03 in meteobridge W/m2
04:54 43.5 °F 43.0 °F 30.28 in Calm     98% 0.03 in meteobridge W/m2
04:59 43.5 °F 43.0 °F 30.27 in Calm     98% 0.02 in meteobridge W/m2
05:04 43.5 °F 43.0 °F 30.27 in Calm     98% 0.02 in meteobridge W/m2
05:09 43.5 °F 43.0 °F 30.27 in Calm     98% 0.02 in meteobridge W/m2
05:14 43.5 °F 43.0 °F 30.27 in Calm     98% 0.02 in meteobridge W/m2
05:19 43.5 °F 43.0 °F 30.27 in Calm     98% 0.01 in meteobridge W/m2
05:24 43.5 °F 43.0 °F 30.27 in Calm     98% 0.01 in meteobridge W/m2
05:29 43.7 °F 43.2 °F 30.26 in Calm     98% 0.01 in meteobridge W/m2
05:34 43.7 °F 43.2 °F 30.26 in Calm     98% 0.00 in meteobridge W/m2
05:39 43.5 °F 43.0 °F 30.26 in Calm     98% 0.00 in meteobridge W/m2
05:44 43.5 °F 43.0 °F 30.26 in Calm     98% 0.00 in meteobridge W/m2
05:49 43.5 °F 43.0 °F 30.26 in Calm     98% 0.00 in meteobridge W/m2
05:54 43.7 °F 43.2 °F 30.26 in Calm     98% 0.00 in meteobridge W/m2
05:59 43.7 °F 43.2 °F 30.25 in Calm     98% 0.00 in meteobridge W/m2
06:04 43.9 °F 43.3 °F 30.25 in Calm     98% 0.00 in meteobridge W/m2
06:09 43.7 °F 43.2 °F 30.25 in Calm     98% 0.00 in meteobridge W/m2
06:14 43.9 °F 43.3 °F 30.25 in Calm     98% 0.00 in meteobridge W/m2
06:19 43.9 °F 43.7 °F 30.25 in Calm     99% 0.00 in meteobridge W/m2
06:24 43.9 °F 43.3 °F 30.24 in Calm     98% 0.00 in meteobridge W/m2
06:29 43.9 °F 43.3 °F 30.25 in Calm     98% 0.00 in meteobridge W/m2
06:34 43.9 °F 43.3 °F 30.24 in Calm     98% 0.00 in meteobridge W/m2
06:39 43.9 °F 43.3 °F 30.25 in Calm     98% 0.00 in meteobridge W/m2
06:44 43.9 °F 43.3 °F 30.25 in Calm     98% 0.00 in meteobridge W/m2
06:49 44.1 °F 43.9 °F 30.25 in Calm     99% 0.00 in meteobridge W/m2
06:54 44.1 °F 43.9 °F 30.24 in Calm     99% 0.00 in meteobridge W/m2
06:59 44.1 °F 43.9 °F 30.24 in Calm     99% 0.00 in meteobridge W/m2
07:04 44.1 °F 43.9 °F 30.24 in Calm     99% 0.00 in meteobridge W/m2
07:09 44.1 °F 43.9 °F 30.25 in Calm     99% 0.00 in meteobridge W/m2
07:14 44.1 °F 43.9 °F 30.25 in Calm     99% 0.00 in meteobridge W/m2
07:19 44.2 °F 44.1 °F 30.25 in Calm     99% 0.00 in meteobridge W/m2
07:24 44.2 °F 44.1 °F 30.24 in Calm     99% 0.00 in meteobridge W/m2
07:29 44.2 °F 44.1 °F 30.24 in Calm     99% 0.00 in meteobridge W/m2
07:34 44.2 °F 44.1 °F 30.24 in Calm     99% 0.00 in meteobridge W/m2
07:39 44.2 °F 44.1 °F 30.24 in Calm     99% 0.00 in meteobridge W/m2
07:44 44.2 °F 44.1 °F 30.24 in Calm     99% 0.00 in meteobridge W/m2
07:49 44.2 °F 43.7 °F 30.24 in Calm     98% 0.01 in meteobridge W/m2
07:54 44.2 °F 43.7 °F 30.24 in Calm     98% 0.01 in meteobridge W/m2
07:59 44.2 °F 43.7 °F 30.24 in Calm     98% 0.01 in meteobridge W/m2
08:04 44.4 °F 44.2 °F 30.24 in Calm     99% 0.01 in meteobridge W/m2
08:09 44.4 °F 44.2 °F 30.24 in Calm     99% 0.02 in meteobridge W/m2
08:14 44.4 °F 44.2 °F 30.24 in Calm     99% 0.02 in meteobridge W/m2
08:19 44.4 °F 44.2 °F 30.24 in Calm     99% 0.02 in meteobridge W/m2
08:24 44.4 °F 44.2 °F 30.24 in Calm     99% 0.02 in meteobridge W/m2
08:29 44.6 °F 44.4 °F 30.24 in Calm     99% 0.02 in meteobridge W/m2
08:34 44.6 °F 44.4 °F 30.24 in Calm     99% 0.02 in meteobridge W/m2
08:39 44.8 °F 44.6 °F 30.24 in Calm     99% 0.03 in meteobridge W/m2
08:44 44.8 °F 44.6 °F 30.24 in Calm     99% 0.03 in meteobridge W/m2
08:49 45.0 °F 44.8 °F 30.24 in Calm     99% 0.02 in meteobridge W/m2
08:54 45.0 °F 44.8 °F 30.25 in Calm     99% 0.03 in meteobridge W/m2
08:59 45.1 °F 45.0 °F 30.24 in Calm     99% 0.04 in meteobridge W/m2
09:04 45.1 °F 45.0 °F 30.24 in Calm     99% 0.04 in meteobridge W/m2
09:09 45.1 °F 45.0 °F 30.24 in Calm     99% 0.03 in meteobridge W/m2
09:14 45.3 °F 45.1 °F 30.24 in Calm     99% 0.03 in meteobridge W/m2
09:19 45.3 °F 45.1 °F 30.24 in Calm     99% 0.04 in meteobridge W/m2
09:24 45.7 °F 45.5 °F 30.24 in Calm     99% 0.04 in meteobridge W/m2
09:29 45.7 °F 45.5 °F 30.23 in Calm     99% 0.06 in meteobridge W/m2
09:34 45.9 °F 45.7 °F 30.23 in Calm     99% 0.06 in meteobridge W/m2
09:39 46.0 °F 45.9 °F 30.23 in Calm     99% 0.06 in meteobridge W/m2
09:44 46.0 °F 45.9 °F 30.23 in Calm     99% 0.07 in meteobridge W/m2
09:49 46.2 °F 46.0 °F 30.23 in Calm     99% 0.07 in meteobridge W/m2
09:54 46.4 °F 46.2 °F 30.23 in Calm     99% 0.06 in meteobridge W/m2
09:59 46.6 °F 46.4 °F 30.23 in Calm     99% 0.05 in meteobridge W/m2
10:04 46.6 °F 46.4 °F 30.23 in Calm     99% 0.06 in meteobridge W/m2
10:09 46.8 °F 46.6 °F 30.22 in Calm     99% 0.06 in meteobridge W/m2
10:14 46.9 °F 46.8 °F 30.22 in Calm     99% 0.06 in meteobridge W/m2
10:19 46.9 °F 46.8 °F 30.22 in Calm     99% 0.05 in meteobridge W/m2
10:24 47.1 °F 46.9 °F 30.22 in Calm     99% 0.05 in meteobridge W/m2
10:29 47.3 °F 47.1 °F 30.22 in Calm     99% 0.03 in meteobridge W/m2
10:34 47.5 °F 47.3 °F 30.21 in Calm     99% 0.03 in meteobridge W/m2
10:39 47.7 °F 47.5 °F 30.22 in Calm     99% 0.02 in meteobridge W/m2
10:44 47.8 °F 47.7 °F 30.21 in Calm     99% 0.02 in meteobridge W/m2
10:49 47.8 °F 47.7 °F 30.21 in Calm     99% 0.01 in meteobridge W/m2
10:54 48.0 °F 47.8 °F 30.21 in Calm     99% 0.01 in meteobridge W/m2
10:59 48.4 °F 48.2 °F 30.21 in Calm     99% 0.01 in meteobridge W/m2
11:04 48.4 °F 48.2 °F 30.20 in Calm     99% 0.00 in meteobridge W/m2
11:09 48.4 °F 48.2 °F 30.20 in Calm     99% 0.00 in meteobridge W/m2
11:14 48.6 °F 48.4 °F 30.20 in Calm     99% 0.00 in meteobridge W/m2
11:19 48.7 °F 48.6 °F 30.20 in Calm     99% 0.00 in meteobridge W/m2
11:24 49.1 °F 48.9 °F 30.20 in Calm     99% 0.00 in meteobridge W/m2
11:29 49.5 °F 49.3 °F 30.19 in Calm     99% 0.00 in meteobridge W/m2
11:34 49.6 °F 49.5 °F 30.19 in Calm     99% 0.00 in meteobridge W/m2
11:39 49.8 °F 49.5 °F 30.19 in Calm     99% 0.00 in meteobridge W/m2
11:44 50.0 °F 49.6 °F 30.19 in Calm     99% 0.00 in meteobridge W/m2
11:48 50.4 °F 50.0 °F 30.18 in Calm     99% 0.00 in meteobridge W/m2
11:54 50.5 °F 50.2 °F 30.18 in Calm     99% 0.00 in meteobridge W/m2
11:59 50.7 °F 50.7 °F 30.18 in Calm     100% 0.00 in meteobridge W/m2
12:04 50.9 °F 50.5 °F 30.18 in Calm     99% 0.00 in meteobridge W/m2
12:09 51.1 °F 50.7 °F 30.18 in Calm     99% 0.00 in meteobridge W/m2
12:14 51.3 °F 51.3 °F 30.17 in Calm     100% 0.00 in meteobridge W/m2
12:19 51.4 °F 51.4 °F 30.17 in Calm     100% 0.00 in meteobridge W/m2
12:24 51.6 °F 51.3 °F 30.17 in Calm     99% 0.00 in meteobridge W/m2
12:29 51.8 °F 51.4 °F 30.18 in Calm     99% 0.00 in meteobridge W/m2
12:34 51.6 °F 51.3 °F 30.17 in Calm     99% 0.00 in meteobridge W/m2
12:39 51.6 °F 51.3 °F 30.17 in Calm     99% 0.00 in meteobridge W/m2
12:44 51.6 °F 51.3 °F 30.17 in Calm     99% 0.00 in meteobridge W/m2
12:49 51.6 °F 51.3 °F 30.16 in Calm     99% 0.00 in meteobridge W/m2
12:54 51.6 °F 51.3 °F 30.17 in Calm     99% 0.00 in meteobridge W/m2
12:59 51.4 °F 51.1 °F 30.17 in Calm   1.0 mph 99% 0.00 in meteobridge W/m2
13:04 51.4 °F 51.1 °F 30.16 in Calm     99% 0.00 in meteobridge W/m2
13:09 51.4 °F 51.1 °F 30.16 in Calm     99% 0.00 in meteobridge W/m2
13:14 51.4 °F 51.1 °F 30.16 in Calm     99% 0.00 in meteobridge W/m2
13:19 51.4 °F 51.1 °F 30.15 in Calm     99% 0.00 in meteobridge W/m2
13:24 51.3 °F 50.9 °F 30.15 in Calm     99% 0.00 in meteobridge W/m2
13:29 51.3 °F 50.9 °F 30.15 in Calm     99% 0.00 in meteobridge W/m2
13:34 51.3 °F 50.9 °F 30.15 in Calm     99% 0.00 in meteobridge W/m2
13:39 51.3 °F 50.9 °F 30.15 in Calm     99% 0.00 in meteobridge W/m2
13:44 51.3 °F 50.9 °F 30.14 in Calm     99% 0.00 in meteobridge W/m2
13:49 51.4 °F 51.1 °F 30.14 in Calm     99% 0.00 in meteobridge W/m2
13:54 51.4 °F 51.1 °F 30.14 in Calm     99% 0.00 in meteobridge W/m2
13:59 51.6 °F 51.3 °F 30.14 in Calm     99% 0.00 in meteobridge W/m2
14:04 51.6 °F 51.3 °F 30.13 in Calm     99% 0.00 in meteobridge W/m2
14:09 51.8 °F 51.4 °F 30.12 in Calm     99% 0.00 in meteobridge W/m2
14:14 52.0 °F 51.6 °F 30.12 in Calm     99% 0.00 in meteobridge W/m2
14:19 52.2 °F 51.8 °F 30.11 in Calm     99% 0.00 in meteobridge W/m2
14:24 52.3 °F 52.0 °F 30.11 in Calm     99% 0.00 in meteobridge W/m2
14:29 52.3 °F 52.0 °F 30.11 in Calm     99% 0.00 in meteobridge W/m2
14:34 52.5 °F 52.2 °F 30.11 in Calm     99% 0.00 in meteobridge W/m2
14:39 52.9 °F 52.5 °F 30.10 in Calm     99% 0.00 in meteobridge W/m2
14:44 53.1 °F 52.7 °F 30.10 in Calm     99% 0.00 in meteobridge W/m2
14:49 53.2 °F 52.9 °F 30.10 in Calm     99% 0.00 in meteobridge W/m2
14:54 53.2 °F 52.9 °F 30.09 in Calm     99% 0.00 in meteobridge W/m2
14:59 53.6 °F 53.2 °F 30.09 in Calm     99% 0.00 in meteobridge W/m2
15:04 53.8 °F 53.4 °F 30.09 in Calm     99% 0.00 in meteobridge W/m2
15:09 54.0 °F 53.6 °F 30.09 in Calm     99% 0.00 in meteobridge W/m2
15:14 54.1 °F 53.8 °F 30.09 in SSE 0.9 mph 2.0 mph 99% 0.00 in meteobridge W/m2
15:19 54.1 °F 53.6 °F 30.09 in Calm     98% 0.00 in meteobridge W/m2
15:24 54.1 °F 53.6 °F 30.09 in Calm     98% 0.00 in meteobridge W/m2
15:29 54.3 °F 53.8 °F 30.09 in Calm     98% 0.00 in meteobridge W/m2
15:34 54.3 °F 53.8 °F 30.09 in Calm     98% 0.00 in meteobridge W/m2
15:39 54.7 °F 54.1 °F 30.09 in Calm     98% 0.00 in meteobridge W/m2
15:44 54.9 °F 54.3 °F 30.09 in Calm     98% 0.00 in meteobridge W/m2
15:49 54.9 °F 54.3 °F 30.09 in Calm     98% 0.00 in meteobridge W/m2
15:54 54.9 °F 54.3 °F 30.09 in Calm     98% 0.00 in meteobridge W/m2
15:59 55.0 °F 54.5 °F 30.09 in Calm     98% 0.00 in meteobridge W/m2
16:04 54.9 °F 54.0 °F 30.09 in Calm     97% 0.00 in meteobridge W/m2
16:09 54.9 °F 54.0 °F 30.09 in Calm   1.0 mph 97% 0.00 in meteobridge W/m2
16:14 54.9 °F 54.0 °F 30.09 in Calm     97% 0.00 in meteobridge W/m2
16:19 54.7 °F 53.8 °F 30.08 in Calm     97% 0.00 in meteobridge W/m2
16:24 54.5 °F 53.6 °F 30.09 in Calm     97% 0.00 in meteobridge W/m2
16:29 54.3 °F 53.4 °F 30.09 in Calm     97% 0.00 in meteobridge W/m2
16:34 54.3 °F 53.4 °F 30.09 in Calm     97% 0.00 in meteobridge W/m2
16:39 54.3 °F 53.4 °F 30.09 in Calm     97% 0.00 in meteobridge W/m2
16:44 54.3 °F 53.4 °F 30.09 in Calm     97% 0.00 in meteobridge W/m2
16:49 54.3 °F 53.4 °F 30.09 in Calm     97% 0.00 in meteobridge W/m2
16:54 54.1 °F 53.2 °F 30.10 in Calm     97% 0.00 in meteobridge W/m2
16:59 54.3 °F 53.4 °F 30.09 in Calm     97% 0.00 in meteobridge W/m2
17:04 54.1 °F 53.2 °F 30.09 in Calm     97% 0.00 in meteobridge W/m2
17:09 54.1 °F 53.2 °F 30.09 in Calm     97% 0.00 in meteobridge W/m2
17:14 54.1 °F 53.2 °F 30.09 in Calm     97% 0.00 in meteobridge W/m2
17:19 54.1 °F 53.2 °F 30.09 in Calm     97% 0.00 in meteobridge W/m2
17:24 54.0 °F 53.1 °F 30.10 in Calm     97% 0.00 in meteobridge W/m2
17:29 54.0 °F 53.1 °F 30.09 in Calm     97% 0.00 in meteobridge W/m2
17:34 54.0 °F 53.1 °F 30.09 in Calm     97% 0.00 in meteobridge W/m2
17:39 54.0 °F 53.1 °F 30.09 in Calm     97% 0.00 in meteobridge W/m2
17:44 54.0 °F 53.4 °F 30.09 in Calm     98% 0.00 in meteobridge W/m2
17:49 53.8 °F 53.2 °F 30.09 in Calm     98% 0.00 in meteobridge W/m2
17:54 53.8 °F 53.2 °F 30.09 in Calm     98% 0.00 in meteobridge W/m2
17:59 53.8 °F 53.2 °F 30.09 in Calm     98% 0.00 in meteobridge W/m2
18:04 53.8 °F 53.2 °F 30.09 in Calm     98% 0.00 in meteobridge W/m2
18:09 53.8 °F 53.2 °F 30.08 in Calm     98% 0.00 in meteobridge W/m2
18:14 53.6 °F 53.1 °F 30.09 in Calm     98% 0.00 in meteobridge W/m2
18:19 53.8 °F 53.2 °F 30.08 in Calm     98% 0.00 in meteobridge W/m2
18:24 53.6 °F 53.1 °F 30.09 in Calm     98% 0.00 in meteobridge W/m2
18:29 53.4 °F 52.9 °F 30.09 in Calm     98% 0.00 in meteobridge W/m2
18:34 53.4 °F 52.9 °F 30.09 in Calm     98% 0.00 in meteobridge W/m2
18:39 53.4 °F 52.9 °F 30.09 in Calm     98% 0.00 in meteobridge W/m2
18:44 53.2 °F 52.7 °F 30.09 in Calm     98% 0.00 in meteobridge W/m2
18:49 53.4 °F 52.9 °F 30.09 in Calm     98% 0.00 in meteobridge W/m2
18:54 53.2 °F 52.7 °F 30.09 in Calm     98% 0.00 in meteobridge W/m2
18:59 53.2 °F 52.7 °F 30.09 in Calm     98% 0.01 in meteobridge W/m2
19:04 53.2 °F 52.7 °F 30.09 in Calm     98% 0.01 in meteobridge W/m2
19:09 53.2 °F 52.9 °F 30.09 in Calm     99% 0.01 in meteobridge W/m2
19:14 53.2 °F 52.9 °F 30.09 in Calm     99% 0.02 in meteobridge W/m2
19:19 53.2 °F 52.9 °F 30.09 in Calm     99% 0.02 in meteobridge W/m2
19:24 53.2 °F 52.9 °F 30.09 in Calm     99% 0.02 in meteobridge W/m2
19:29 53.2 °F 52.9 °F 30.08 in Calm     99% 0.02 in meteobridge W/m2
19:34 53.2 °F 52.9 °F 30.08 in Calm     99% 0.03 in meteobridge W/m2
19:39 53.2 °F 52.9 °F 30.08 in Calm     99% 0.04 in meteobridge W/m2
19:44 53.2 °F 52.9 °F 30.09 in Calm     99% 0.06 in meteobridge W/m2
19:49 53.2 °F 52.9 °F 30.09 in Calm     99% 0.07 in meteobridge W/m2
19:53 53.2 °F 52.9 °F 30.09 in Calm     99% 0.07 in meteobridge W/m2
19:59 53.4 °F 53.1 °F 30.09 in Calm     99% 0.10 in meteobridge W/m2
20:04 53.4 °F 53.1 °F 30.09 in Calm     99% 0.12 in meteobridge W/m2
20:09 53.4 °F 53.1 °F 30.08 in Calm     99% 0.14 in meteobridge W/m2
20:14 53.4 °F 53.1 °F 30.08 in Calm     99% 0.15 in meteobridge W/m2
20:19 53.4 °F 53.1 °F 30.09 in Calm     99% 0.15 in meteobridge W/m2
20:24 53.2 °F 52.9 °F 30.08 in Calm     99% 0.18 in meteobridge W/m2
20:29 53.4 °F 53.1 °F 30.08 in Calm     99% 0.19 in meteobridge W/m2
20:34 53.4 °F 53.1 °F 30.08 in Calm     99% 0.19 in meteobridge W/m2
20:39 53.4 °F 53.1 °F 30.08 in Calm     99% 0.19 in meteobridge W/m2
20:44 53.4 °F 53.1 °F 30.08 in Calm     99% 0.17 in meteobridge W/m2
20:49 53.8 °F 53.4 °F 30.08 in Calm     99% 0.17 in meteobridge W/m2
20:54 53.6 °F 53.2 °F 30.08 in Calm     99% 0.16 in meteobridge W/m2
20:59 53.8 °F 53.4 °F 30.08 in Calm     99% 0.14 in meteobridge W/m2
21:04 53.8 °F 53.4 °F 30.07 in Calm     99% 0.12 in meteobridge W/m2
21:09 54.0 °F 53.6 °F 30.08 in Calm     99% 0.10 in meteobridge W/m2
21:14 54.0 °F 53.6 °F 30.08 in SSE 0.9 mph 1.0 mph 99% 0.09 in meteobridge W/m2
21:19 54.0 °F 53.6 °F 30.08 in Calm     99% 0.09 in meteobridge W/m2
21:24 53.8 °F 53.4 °F 30.08 in Calm     99% 0.07 in meteobridge W/m2
21:29 53.8 °F 53.4 °F 30.08 in Calm     99% 0.06 in meteobridge W/m2
21:34 54.0 °F 53.6 °F 30.08 in Calm   1.0 mph 99% 0.05 in meteobridge W/m2
21:39 54.1 °F 53.8 °F 30.08 in Calm     99% 0.05 in meteobridge W/m2
21:44 54.0 °F 53.6 °F 30.07 in Calm     99% 0.04 in meteobridge W/m2
21:49 53.8 °F 53.4 °F 30.07 in Calm     99% 0.05 in meteobridge W/m2
21:54 53.4 °F 53.1 °F 30.07 in Calm     99% 0.05 in meteobridge W/m2
21:59 53.2 °F 52.9 °F 30.07 in Calm     99% 0.04 in meteobridge W/m2
22:04 53.2 °F 52.9 °F 30.07 in Calm     99% 0.04 in meteobridge W/m2
22:09 53.1 °F 52.7 °F 30.06 in Calm     99% 0.05 in meteobridge W/m2
22:14 52.9 °F 52.5 °F 30.07 in Calm     99% 0.04 in meteobridge W/m2
22:19 52.9 °F 52.5 °F 30.06 in Calm     99% 0.05 in meteobridge W/m2
22:24 52.5 °F 52.2 °F 30.06 in Calm     99% 0.05 in meteobridge W/m2
22:29 52.5 °F 52.2 °F 30.06 in Calm     99% 0.04 in meteobridge W/m2
22:34 52.5 °F 52.2 °F 30.06 in Calm     99% 0.04 in meteobridge W/m2
22:39 52.3 °F 52.0 °F 30.06 in Calm     99% 0.03 in meteobridge W/m2
22:44 52.3 °F 52.0 °F 30.06 in Calm     99% 0.03 in meteobridge W/m2
22:49 52.2 °F 51.8 °F 30.06 in Calm     99% 0.02 in meteobridge W/m2
22:54 52.2 °F 51.8 °F 30.06 in Calm     99% 0.02 in meteobridge W/m2
22:59 52.3 °F 52.0 °F 30.06 in Calm   2.0 mph 99% 0.02 in meteobridge W/m2
23:04 52.5 °F 52.2 °F 30.06 in Calm   2.0 mph 99% 0.02 in meteobridge W/m2
23:09 54.3 °F 54.3 °F 30.05 in Calm   7.0 mph 100% 0.02 in meteobridge W/m2
23:14 55.2 °F 55.2 °F 30.05 in Calm   2.0 mph 100% 0.01 in meteobridge W/m2
23:19 55.6 °F 55.6 °F 30.05 in Calm   2.0 mph 100% 0.00 in meteobridge W/m2
23:24 55.8 °F 55.8 °F 30.04 in Calm     100% 0.00 in meteobridge W/m2
23:29 55.8 °F 55.8 °F 30.04 in Calm     100% 0.00 in meteobridge W/m2
23:34 55.9 °F 55.9 °F 30.04 in Calm   1.0 mph 100% 0.00 in meteobridge W/m2
23:39 55.9 °F 55.9 °F 30.04 in Calm   1.0 mph 100% 0.00 in meteobridge W/m2
23:44 55.9 °F 55.9 °F 30.04 in Calm     100% 0.00 in meteobridge W/m2
23:49 55.9 °F 55.9 °F 30.04 in Calm     100% 0.00 in meteobridge W/m2
23:54 55.9 °F 55.9 °F 30.04 in Calm     100% 0.00 in meteobridge W/m2
23:59 55.9 °F 55.6 °F 30.04 in Calm     99% 0.00 in meteobridge W/m2
Juneau County Weather
Compliments of Weather Underground - 2.5 mb